createdAt,value
2018-11-11T00:01:16.527Z,19.50
2018-11-11T00:03:50.290Z,19.73
2018-11-11T00:06:24.158Z,20.83
2018-11-11T00:08:59.974Z,20.70
2018-11-11T00:11:33.769Z,19.90
2018-11-11T00:14:07.735Z,20.53
2018-11-11T00:16:41.505Z,20.33
2018-11-11T00:19:16.490Z,18.90
2018-11-11T00:21:50.331Z,18.90
2018-11-11T00:24:24.329Z,19.93
2018-11-11T00:26:58.170Z,19.00
2018-11-11T00:29:31.965Z,18.50
2018-11-11T00:32:05.894Z,18.17
2018-11-11T00:34:39.760Z,20.40
2018-11-11T00:37:13.538Z,20.50
2018-11-11T00:39:48.320Z,20.17
2018-11-11T00:42:22.135Z,19.87
2018-11-11T00:45:06.557Z,19.80
2018-11-11T00:47:40.350Z,19.10
2018-11-11T00:50:15.275Z,19.50
2018-11-11T00:52:49.042Z,18.97
2018-11-11T00:55:23.902Z,20.70
2018-11-11T00:57:57.664Z,20.27
2018-11-11T01:00:33.441Z,18.53
2018-11-11T01:03:07.201Z,19.43
2018-11-11T01:05:42.040Z,20.40
2018-11-11T01:08:15.863Z,20.87
2018-11-11T01:10:50.701Z,20.23
2018-11-11T01:13:24.484Z,19.43
2018-11-11T01:15:59.332Z,19.30
2018-11-11T01:18:33.105Z,18.47
2018-11-11T01:21:06.938Z,19.37
2018-11-11T01:23:40.745Z,19.70
2018-11-11T01:26:15.620Z,19.30
2018-11-11T01:28:49.424Z,20.17
2018-11-11T01:31:23.273Z,19.17
2018-11-11T01:33:57.037Z,19.40
2018-11-11T01:36:30.884Z,19.90
2018-11-11T01:39:05.759Z,18.93
2018-11-11T01:41:40.557Z,19.47
2018-11-11T01:44:14.314Z,19.30
2018-11-11T01:46:49.168Z,19.60
2018-11-11T01:49:22.948Z,19.37
2018-11-11T01:51:56.681Z,19.07
2018-11-11T01:54:30.453Z,20.00
2018-11-11T01:57:05.645Z,19.03
2018-11-11T01:59:39.412Z,19.97
2018-11-11T02:02:14.173Z,20.07
2018-11-11T02:04:47.913Z,19.67
2018-11-11T02:07:21.699Z,18.70
2018-11-11T02:09:55.517Z,19.73
2018-11-11T02:12:30.451Z,18.80
2018-11-11T02:15:04.300Z,20.03
2018-11-11T02:17:39.079Z,19.43
2018-11-11T02:20:15.222Z,20.17
2018-11-11T02:22:51.673Z,18.37
2018-11-11T02:25:25.453Z,19.20
2018-11-11T02:28:00.253Z,19.40
2018-11-11T02:30:34.024Z,18.53
2018-11-11T02:33:09.904Z,18.13
2018-11-11T02:35:43.661Z,19.03
2018-11-11T02:38:17.501Z,17.97
2018-11-11T02:40:51.303Z,19.47
2018-11-11T02:43:27.071Z,18.33
2018-11-11T02:46:00.860Z,19.47
2018-11-11T02:48:35.699Z,19.20
2018-11-11T02:51:09.499Z,18.57
2018-11-11T02:53:44.383Z,18.40
2018-11-11T02:56:18.183Z,17.60
2018-11-11T02:58:54.026Z,17.70
2018-11-11T03:01:27.822Z,18.37
2018-11-11T03:04:05.883Z,18.87
2018-11-11T03:06:39.819Z,17.87
2018-11-11T03:09:14.077Z,17.73
2018-11-11T03:11:47.853Z,17.63
2018-11-11T03:14:22.715Z,17.97
2018-11-11T03:16:56.512Z,17.83
2018-11-11T03:19:30.303Z,18.93
2018-11-11T03:22:04.099Z,18.63
2018-11-11T03:24:38.981Z,18.47
2018-11-11T03:27:12.754Z,18.87
2018-11-11T03:29:47.539Z,18.70
2018-11-11T03:32:21.335Z,18.87
2018-11-11T03:34:55.254Z,18.87
2018-11-11T03:37:29.041Z,19.20
2018-11-11T03:40:07.094Z,19.27
2018-11-11T03:42:40.990Z,19.07
2018-11-11T03:45:16.203Z,19.70
2018-11-11T03:47:51.205Z,19.47
2018-11-11T03:50:24.998Z,18.47
2018-11-11T03:52:58.811Z,18.07
2018-11-11T03:55:32.607Z,19.50
2018-11-11T03:58:06.396Z,20.07
2018-11-11T04:00:42.345Z,18.97
2018-11-11T04:03:16.115Z,19.97
2018-11-11T04:05:52.975Z,19.47
2018-11-11T04:08:26.786Z,19.47
2018-11-11T04:11:00.809Z,18.97
2018-11-11T04:13:34.778Z,19.73
2018-11-11T04:16:10.658Z,19.93
2018-11-11T04:18:44.444Z,18.57
2018-11-11T04:21:19.358Z,19.43
2018-11-11T04:23:53.142Z,20.80
2018-11-11T04:26:27.001Z,19.07
2018-11-11T04:29:00.811Z,20.03
2018-11-11T04:31:34.576Z,18.93
2018-11-11T04:34:08.390Z,20.30
2018-11-11T04:36:43.122Z,20.37
2018-11-11T04:39:17.003Z,20.23
2018-11-11T04:41:55.269Z,21.47
2018-11-11T04:44:29.065Z,20.47
2018-11-11T04:47:02.875Z,20.60
2018-11-11T04:49:36.667Z,19.80
2018-11-11T04:52:12.441Z,20.40
2018-11-11T04:54:46.209Z,19.67
2018-11-11T04:57:24.150Z,19.63
2018-11-11T04:59:57.919Z,20.63
2018-11-11T05:05:53.151Z,20.53
2018-11-11T05:08:26.975Z,20.30
2018-11-11T05:11:00.853Z,21.17
2018-11-11T05:13:34.606Z,20.57
2018-11-11T05:16:19.685Z,20.27
2018-11-11T05:18:53.455Z,19.83
2018-11-11T05:21:29.349Z,19.40
2018-11-11T05:24:03.426Z,19.43
2018-11-11T05:26:39.218Z,20.90
2018-11-11T05:29:12.978Z,19.10
2018-11-11T05:31:52.817Z,19.30
2018-11-11T05:34:26.583Z,20.10
2018-11-11T05:37:01.405Z,19.33
2018-11-11T05:39:35.210Z,20.70
2018-11-11T05:42:13.667Z,20.73
2018-11-11T05:44:47.462Z,20.17
2018-11-11T05:47:22.396Z,21.00
2018-11-11T05:49:56.164Z,20.07
2018-11-11T05:52:30.975Z,18.57
2018-11-11T05:55:05.776Z,19.43
2018-11-11T05:57:41.731Z,20.10
2018-11-11T06:00:16.863Z,20.00
2018-11-11T06:02:51.728Z,19.53
2018-11-11T06:05:25.532Z,18.63
2018-11-11T06:08:02.558Z,19.67
2018-11-11T06:10:36.400Z,20.10
2018-11-11T06:13:11.339Z,20.67
2018-11-11T06:15:45.201Z,20.57
2018-11-11T06:18:21.025Z,20.17
2018-11-11T06:20:54.748Z,20.70
2018-11-11T06:23:46.514Z,20.87
2018-11-11T06:26:20.256Z,20.60
2018-11-11T06:29:00.706Z,20.43
2018-11-11T06:31:34.441Z,20.67
2018-11-11T06:34:08.387Z,19.77
2018-11-11T06:36:42.284Z,20.00
2018-11-11T06:39:22.108Z,20.17
2018-11-11T06:41:55.848Z,19.87
2018-11-11T06:44:29.721Z,18.53
2018-11-11T06:47:03.876Z,19.70
2018-11-11T06:49:38.819Z,17.77
2018-11-11T06:52:12.607Z,18.60
2018-11-11T06:54:47.538Z,17.97
2018-11-11T06:57:21.340Z,18.53
2018-11-11T07:00:03.339Z,18.10
2018-11-11T07:02:40.943Z,18.53
2018-11-11T07:05:16.731Z,18.13
2018-11-11T07:07:50.495Z,17.33
2018-11-11T07:10:24.336Z,17.27
2018-11-11T07:12:58.116Z,18.03
2018-11-11T07:15:37.429Z,18.10
2018-11-11T07:18:11.209Z,18.67
2018-11-11T07:20:46.034Z,18.20
2018-11-11T07:23:19.780Z,18.10
2018-11-11T07:25:54.690Z,17.77
2018-11-11T07:28:28.644Z,18.27
2018-11-11T07:31:04.829Z,18.47
2018-11-11T07:33:38.889Z,17.63
2018-11-11T07:36:17.753Z,18.43
2018-11-11T07:38:51.488Z,18.50
2018-11-11T07:41:26.356Z,18.13
2018-11-11T07:44:01.485Z,19.53
2018-11-11T07:46:40.940Z,18.33
2018-11-11T07:49:14.988Z,19.63
2018-11-11T07:51:49.855Z,22.13
2018-11-11T07:54:23.753Z,24.27
2018-11-11T07:56:59.603Z,24.83
2018-11-11T07:59:33.347Z,19.20
2018-11-11T08:02:08.631Z,17.57
2018-11-11T08:04:42.597Z,17.30
2018-11-11T08:07:18.420Z,17.17
2018-11-11T08:09:52.189Z,17.57
2018-11-11T08:12:28.088Z,18.03
2018-11-11T08:15:01.842Z,17.57
2018-11-11T08:17:46.595Z,17.37
2018-11-11T08:20:20.402Z,17.00
2018-11-11T08:22:56.311Z,17.50
2018-11-11T08:25:30.152Z,17.87
2018-11-11T08:28:09.826Z,18.03
2018-11-11T08:30:43.749Z,17.53
2018-11-11T08:33:21.332Z,17.20
2018-11-11T08:35:55.108Z,17.27
2018-11-11T08:38:32.290Z,17.17
2018-11-11T08:41:06.251Z,16.93
2018-11-11T08:43:41.075Z,17.70
2018-11-11T08:46:14.892Z,18.83
2018-11-11T08:48:52.618Z,16.83
2018-11-11T08:51:26.506Z,16.13
2018-11-11T08:54:03.875Z,16.53
2018-11-11T08:56:37.715Z,21.97
2018-11-11T08:59:14.689Z,19.17
2018-11-11T09:01:48.474Z,15.53
2018-11-11T09:04:23.406Z,16.40
2018-11-11T09:06:57.219Z,15.83
2018-11-11T09:09:36.642Z,16.10
2018-11-11T09:12:10.395Z,14.83
2018-11-11T09:14:46.312Z,15.80
2018-11-11T09:17:20.161Z,15.43
2018-11-11T09:19:55.161Z,14.90
2018-11-11T09:22:28.918Z,14.30
2018-11-11T09:25:08.250Z,14.85
2018-11-11T09:27:42.416Z,13.90
2018-11-11T09:30:17.368Z,14.57
2018-11-11T09:32:51.566Z,14.13
2018-11-11T09:38:27.916Z,13.87
2018-11-11T09:41:01.738Z,14.47
2018-11-11T09:43:39.650Z,13.53
2018-11-11T09:46:14.110Z,14.85
2018-11-11T09:48:51.940Z,14.05
2018-11-11T09:51:26.334Z,13.58
2018-11-11T09:54:00.816Z,13.98
2018-11-11T09:56:35.445Z,12.82
2018-11-11T09:59:11.894Z,13.18
2018-11-11T10:01:46.309Z,12.28
2018-11-11T10:04:25.785Z,12.58
2018-11-11T10:09:09.247Z,12.75
2018-11-11T10:11:47.382Z,12.33
2018-11-11T10:14:27.332Z,11.93
2018-11-11T10:17:41.154Z,11.78
2018-11-11T10:20:18.723Z,11.50
2018-11-11T10:23:15.150Z,11.68
2018-11-11T10:25:57.201Z,10.78
2018-11-11T10:28:43.733Z,11.03
2018-11-11T10:48:42.222Z,10.35
2018-11-11T10:51:16.805Z,8.23
2018-11-11T10:53:50.865Z,8.40
2018-11-11T10:56:26.524Z,8.55
2018-11-11T10:59:00.914Z,8.98
2018-11-11T11:01:40.636Z,8.25
2018-11-11T11:04:15.076Z,8.43
2018-11-11T11:07:06.468Z,8.95
2018-11-11T11:09:40.820Z,8.33
2018-11-11T11:12:22.431Z,8.28
2018-11-11T11:14:56.877Z,8.18
2018-11-11T11:17:32.308Z,8.78
2018-11-11T11:20:07.273Z,7.80
2018-11-11T11:22:43.741Z,8.65
2018-11-11T11:25:18.112Z,8.40
2018-11-11T11:28:03.034Z,8.00
2018-11-11T11:30:37.428Z,8.58
2018-11-11T11:33:12.823Z,8.45
2018-11-11T11:35:47.239Z,8.03
2018-11-11T11:38:23.949Z,8.45
2018-11-11T11:40:58.512Z,7.37
2018-11-11T11:43:32.974Z,8.40
2018-11-11T11:46:07.396Z,8.18
2018-11-11T11:48:42.839Z,8.20
2018-11-11T11:51:17.213Z,7.65
2018-11-11T11:53:51.645Z,7.87
2018-11-11T11:56:25.999Z,7.67
2018-11-11T11:59:03.859Z,7.90
2018-11-11T12:01:38.228Z,8.18
2018-11-11T12:04:13.669Z,7.35
2018-11-11T12:06:48.084Z,7.53
2018-11-11T12:09:27.602Z,7.42
2018-11-11T12:12:02.000Z,7.33
2018-11-11T12:14:50.572Z,7.65
2018-11-11T12:17:25.012Z,7.70
2018-11-11T12:19:59.453Z,7.62
2018-11-11T12:22:33.838Z,6.92
2018-11-11T12:25:09.590Z,7.37
2018-11-11T12:27:43.976Z,7.03
2018-11-11T12:30:18.465Z,6.87
2018-11-11T12:32:53.037Z,6.50
2018-11-11T12:35:27.506Z,5.65
2018-11-11T12:38:02.341Z,5.60
2018-11-11T12:40:37.775Z,5.90
2018-11-11T12:43:12.177Z,6.42
2018-11-11T12:45:50.079Z,5.65
2018-11-11T12:48:24.430Z,5.92
2018-11-11T12:50:59.844Z,5.33
2018-11-11T12:53:34.217Z,5.30
2018-11-11T12:56:10.481Z,5.45
2018-11-11T12:58:44.898Z,4.78
2018-11-11T13:01:20.474Z,4.83
2018-11-11T13:03:54.859Z,5.53
2018-11-11T13:06:30.246Z,4.97
2018-11-11T13:09:06.969Z,5.05
2018-11-11T13:11:41.619Z,5.00
2018-11-11T13:14:15.995Z,4.78
2018-11-11T13:16:51.474Z,4.70
2018-11-11T13:19:25.942Z,4.75
2018-11-11T13:22:00.594Z,4.45
2018-11-11T13:24:35.039Z,4.80
2018-11-11T13:27:09.633Z,4.40
2018-11-11T13:29:43.976Z,4.78
2018-11-11T13:32:20.355Z,4.83
2018-11-11T13:34:54.694Z,4.60
2018-11-11T13:37:29.219Z,4.47
2018-11-11T13:40:03.719Z,5.03
2018-11-11T13:42:37.596Z,5.10
2018-11-11T13:45:15.073Z,4.80
2018-11-11T13:47:50.413Z,4.28
2018-11-11T13:50:25.247Z,4.30
2018-11-11T13:52:59.704Z,4.65
2018-11-11T13:55:33.494Z,4.80
2018-11-11T13:58:08.308Z,4.50
2018-11-11T14:00:42.105Z,5.12
2018-11-11T14:03:16.922Z,4.33
2018-11-11T14:05:51.322Z,4.87
2018-11-11T14:08:25.319Z,4.77
2018-11-11T14:10:59.277Z,4.27
2018-11-11T14:13:33.222Z,4.60
2018-11-11T14:16:06.999Z,4.77
2018-11-11T14:18:43.548Z,4.00
2018-11-11T14:21:17.942Z,3.87
2018-11-11T14:23:52.288Z,4.00
2018-11-11T14:26:26.919Z,3.77
2018-11-11T14:29:01.331Z,4.10
2018-11-11T14:31:35.140Z,4.53
2018-11-11T14:34:09.689Z,4.75
2018-11-11T14:36:43.454Z,4.93
2018-11-11T14:39:18.353Z,5.50
2018-11-11T14:41:52.148Z,5.57
2018-11-11T14:44:26.002Z,5.83
2018-11-11T14:47:00.289Z,5.83
2018-11-11T14:49:34.694Z,6.33
2018-11-11T14:52:08.560Z,6.03
2018-11-11T14:54:42.451Z,6.13
2018-11-11T14:57:16.219Z,6.15
2018-11-11T14:59:50.585Z,6.15
2018-11-11T15:02:24.395Z,6.17
2018-11-11T15:04:59.233Z,7.93
2018-11-11T15:07:33.005Z,8.93
2018-11-11T15:10:09.831Z,8.80
2018-11-11T15:12:43.659Z,8.50
2018-11-11T15:15:18.807Z,7.13
2018-11-11T15:17:53.249Z,7.50
2018-11-11T15:20:29.285Z,7.50
2018-11-11T15:23:03.121Z,6.87
2018-11-11T15:25:41.558Z,6.30
2018-11-11T15:28:15.317Z,6.03
2018-11-11T15:30:50.490Z,5.93
2018-11-11T15:33:24.183Z,5.87
2018-11-11T15:36:02.310Z,5.80
2018-11-11T15:38:36.021Z,5.70
2018-11-11T15:41:12.876Z,6.20
2018-11-11T15:43:46.806Z,6.03
2018-11-11T15:46:21.119Z,5.70
2018-11-11T15:48:54.864Z,5.60
2018-11-11T15:51:28.769Z,5.40
2018-11-11T15:54:02.518Z,5.23
2018-11-11T15:56:36.453Z,5.47
2018-11-11T15:59:10.243Z,5.17
2018-11-11T16:01:45.798Z,5.97
2018-11-11T16:04:19.529Z,5.90
2018-11-11T16:06:55.541Z,5.53
2018-11-11T16:09:29.734Z,5.50
2018-11-11T16:12:03.506Z,6.27
2018-11-11T16:14:37.362Z,5.37
2018-11-11T16:17:13.136Z,5.30
2018-11-11T16:19:47.249Z,5.77
2018-11-11T16:22:21.117Z,5.63
2018-11-11T16:24:54.916Z,5.50
2018-11-11T16:27:28.785Z,6.27
2018-11-11T16:30:03.740Z,5.93
2018-11-11T16:32:38.534Z,5.77
2018-11-11T16:35:13.541Z,5.83
2018-11-11T16:37:47.861Z,6.03
2018-11-11T16:40:22.956Z,5.40
2018-11-11T16:42:57.269Z,5.23
2018-11-11T16:45:32.164Z,6.27
2018-11-11T16:48:07.148Z,5.00
2018-11-11T16:50:41.099Z,5.07
2018-11-11T16:53:16.132Z,5.13
2018-11-11T16:55:50.012Z,5.03
2018-11-11T16:58:24.268Z,5.10
2018-11-11T17:00:58.127Z,5.20
2018-11-11T17:03:32.037Z,4.87
2018-11-11T17:06:06.509Z,4.93
2018-11-11T17:08:40.753Z,4.93
2018-11-11T17:11:14.526Z,4.40
2018-11-11T17:13:48.453Z,4.87
2018-11-11T17:16:22.287Z,5.00
2018-11-11T17:18:56.153Z,4.63
2018-11-11T17:21:30.072Z,4.67
2018-11-11T17:24:04.476Z,4.60
2018-11-11T17:26:38.261Z,4.63
2018-11-11T17:29:16.242Z,4.47
2018-11-11T17:31:50.040Z,4.90
2018-11-11T17:34:26.017Z,5.20
2018-11-11T17:36:59.805Z,5.37
2018-11-11T17:39:36.813Z,5.50
2018-11-11T17:42:10.929Z,5.77
2018-11-11T17:44:46.793Z,6.03
2018-11-11T17:47:20.632Z,6.23
2018-11-11T17:49:59.125Z,6.50
2018-11-11T17:52:32.955Z,6.17
2018-11-11T17:55:09.438Z,6.80
2018-11-11T17:57:43.784Z,6.90
2018-11-11T18:00:22.153Z,6.63
2018-11-11T18:02:56.579Z,6.50
2018-11-11T18:05:32.134Z,6.20
2018-11-11T18:08:06.252Z,6.70
2018-11-11T18:10:42.359Z,6.93
2018-11-11T18:13:16.272Z,6.47
2018-11-11T18:15:50.186Z,7.17
2018-11-11T18:18:24.008Z,6.33
2018-11-11T18:20:58.800Z,6.33
2018-11-11T18:23:32.608Z,5.73
2018-11-11T18:26:07.501Z,6.67
2018-11-11T18:28:41.361Z,6.20
2018-11-11T18:31:16.541Z,6.57
2018-11-11T18:33:50.414Z,7.37
2018-11-11T18:36:26.275Z,6.73
2018-11-11T18:39:00.094Z,6.33
2018-11-11T18:41:52.413Z,5.80
2018-11-11T18:44:26.380Z,4.77
2018-11-11T18:47:02.708Z,5.13
2018-11-11T18:49:36.544Z,5.70
2018-11-11T18:52:13.573Z,5.20
2018-11-11T18:54:47.464Z,5.20
2018-11-11T18:57:22.433Z,5.17
2018-11-11T18:59:56.316Z,4.87
2018-11-11T19:02:33.289Z,5.23
2018-11-11T19:05:08.326Z,5.00
2018-11-11T19:07:46.724Z,4.73
2018-11-11T19:10:21.879Z,4.77
2018-11-11T19:13:00.333Z,4.23
2018-11-11T19:15:34.233Z,4.87
2018-11-11T19:18:08.135Z,5.10
2018-11-11T19:20:41.936Z,4.50
2018-11-11T19:23:15.856Z,4.60
2018-11-11T19:25:49.689Z,4.70
2018-11-11T19:28:28.303Z,4.37
2018-11-11T19:31:02.130Z,4.10
2018-11-11T19:33:38.024Z,4.17
2018-11-11T19:36:12.028Z,3.97
2018-11-11T19:38:50.178Z,4.17
2018-11-11T19:41:24.060Z,4.07
2018-11-11T19:43:59.990Z,4.53
2018-11-11T19:46:33.824Z,4.30
2018-11-11T19:49:09.073Z,4.43
2018-11-11T19:51:43.034Z,4.67
2018-11-11T19:54:17.272Z,4.63
2018-11-11T19:56:51.164Z,4.23
2018-11-11T19:59:25.503Z,4.77
2018-11-11T20:01:59.338Z,4.30
2018-11-11T20:04:35.174Z,4.37
2018-11-11T20:07:08.991Z,4.43
2018-11-11T20:09:48.875Z,4.50
2018-11-11T20:12:22.727Z,4.70
2018-11-11T20:14:57.552Z,3.93
2018-11-11T20:17:31.466Z,4.20
2018-11-11T20:20:07.215Z,4.93
2018-11-11T20:22:41.291Z,4.13
2018-11-11T20:25:21.124Z,4.40
2018-11-11T20:27:54.909Z,4.10
2018-11-11T20:30:32.245Z,5.33
2018-11-11T20:33:06.531Z,4.93
2018-11-11T20:35:41.412Z,5.07
2018-11-11T20:38:15.231Z,4.63
2018-11-11T20:40:49.190Z,4.60
2018-11-11T20:43:23.370Z,4.97
2018-11-11T20:46:02.266Z,4.70
2018-11-11T20:48:36.053Z,5.07
2018-11-11T20:51:10.929Z,6.17
2018-11-11T20:53:44.730Z,4.57
2018-11-11T20:56:22.847Z,5.10
2018-11-11T20:58:56.873Z,4.60
2018-11-11T21:01:32.687Z,4.53
2018-11-11T21:04:06.610Z,4.40
2018-11-11T21:06:42.495Z,4.47
2018-11-11T21:09:16.408Z,4.63
2018-11-11T21:11:54.654Z,4.23
2018-11-11T21:14:28.491Z,4.60
2018-11-11T21:17:03.408Z,4.30
2018-11-11T21:19:37.414Z,4.47
2018-11-11T21:22:13.295Z,4.27
2018-11-11T21:24:47.126Z,4.60
2018-11-11T21:27:20.962Z,4.43
2018-11-11T21:29:54.743Z,4.50
2018-11-11T21:32:29.533Z,4.57
2018-11-11T21:35:03.532Z,4.73
2018-11-11T21:37:37.611Z,4.50
2018-11-11T21:40:14.277Z,4.10
2018-11-11T21:42:49.970Z,4.50
2018-11-11T21:45:24.665Z,4.50
2018-11-11T21:47:59.143Z,4.43
2018-11-11T21:50:33.097Z,4.37
2018-11-11T21:53:16.242Z,4.63
2018-11-11T21:55:50.328Z,5.07
2018-11-11T21:58:24.853Z,5.07
2018-11-11T22:00:58.649Z,4.57
2018-11-11T22:03:32.473Z,5.30
2018-11-11T22:06:06.370Z,4.80
2018-11-11T22:08:40.207Z,5.93
2018-11-11T22:11:14.177Z,4.73
2018-11-11T22:13:50.004Z,4.87
2018-11-11T22:16:23.861Z,4.73
2018-11-11T22:18:57.700Z,4.57
2018-11-11T22:21:31.488Z,4.30
2018-11-11T22:24:05.353Z,4.00
2018-11-11T22:26:39.101Z,3.63
2018-11-11T22:29:12.911Z,3.13
2018-11-11T22:31:46.680Z,3.50
2018-11-11T22:34:20.578Z,3.67
2018-11-11T22:36:54.353Z,3.27
2018-11-11T22:39:28.153Z,3.20
2018-11-11T22:42:01.928Z,3.40
2018-11-11T22:44:36.779Z,3.30
2018-11-11T22:47:10.562Z,3.00
2018-11-11T22:49:46.334Z,3.10
2018-11-11T22:52:20.157Z,2.70
2018-11-11T22:54:55.226Z,3.50
2018-11-11T22:57:29.068Z,2.83
2018-11-11T23:00:02.961Z,2.27
2018-11-11T23:02:36.757Z,2.67
2018-11-11T23:05:12.673Z,2.47
2018-11-11T23:07:46.669Z,2.20
2018-11-11T23:10:21.722Z,2.43
2018-11-11T23:12:55.541Z,2.50
2018-11-11T23:15:31.416Z,2.87
2018-11-11T23:18:05.232Z,2.67
2018-11-11T23:20:44.384Z,3.00
2018-11-11T23:23:18.193Z,2.77
2018-11-11T23:25:52.020Z,3.10
2018-11-11T23:28:25.880Z,2.77
2018-11-11T23:31:00.013Z,2.67
2018-11-11T23:33:33.844Z,2.60
2018-11-11T23:36:08.722Z,2.37
2018-11-11T23:38:42.540Z,2.63
2018-11-11T23:41:17.555Z,2.83
2018-11-11T23:43:51.370Z,3.50
2018-11-11T23:46:26.215Z,3.60
2018-11-11T23:49:00.036Z,3.80
2018-11-11T23:51:33.928Z,3.90
2018-11-11T23:54:07.748Z,3.40
2018-11-11T23:56:45.272Z,3.40
2018-11-11T23:59:19.090Z,3.70
